createdAt,value
2022-11-14T00:04:29.255Z,0.70
2022-11-14T00:09:34.537Z,0.50
2022-11-14T00:19:41.180Z,0.60
2022-11-14T00:24:46.079Z,0.60
2022-11-14T00:34:52.656Z,0.52
2022-11-14T00:39:57.459Z,0.50
2022-11-14T00:45:00.750Z,0.50
2022-11-14T00:50:04.351Z,0.40
2022-11-14T00:55:10.370Z,0.50
2022-11-14T01:00:16.349Z,0.50
2022-11-14T01:05:19.695Z,0.60
2022-11-14T01:10:24.711Z,0.60
2022-11-14T01:15:27.992Z,0.50
2022-11-14T01:20:31.332Z,0.60
2022-11-14T01:25:36.541Z,0.60
2022-11-14T01:30:40.440Z,0.47
2022-11-14T01:35:43.797Z,0.50
2022-11-14T01:40:48.637Z,0.98
2022-11-14T01:51:03.591Z,0.60
2022-11-14T01:56:11.561Z,0.70
2022-11-14T02:01:15.113Z,0.60
2022-11-14T02:06:22.473Z,0.60
2022-11-14T02:11:30.237Z,0.75
2022-11-14T02:16:33.586Z,0.70
2022-11-14T02:21:38.410Z,0.80
2022-11-14T02:26:42.854Z,0.63
2022-11-14T02:31:46.445Z,0.70
2022-11-14T02:36:51.202Z,0.50
2022-11-14T02:46:57.531Z,0.70
2022-11-14T02:52:02.426Z,0.75
2022-11-14T02:57:05.931Z,0.88
2022-11-14T03:02:09.313Z,0.80
2022-11-14T03:07:14.295Z,0.82
2022-11-14T03:12:19.083Z,0.60
2022-11-14T03:27:32.821Z,0.63
2022-11-14T03:32:36.093Z,0.75
2022-11-14T03:37:41.043Z,0.80
2022-11-14T03:42:44.377Z,0.68
2022-11-14T03:47:47.667Z,0.80
2022-11-14T03:52:52.616Z,0.90
2022-11-14T03:57:56.055Z,0.90
2022-11-14T04:02:59.391Z,0.80
2022-11-14T04:08:06.227Z,1.05
2022-11-14T04:13:10.220Z,0.93
2022-11-14T04:18:13.802Z,1.10
2022-11-14T04:23:18.810Z,0.95
2022-11-14T04:28:22.219Z,0.90
2022-11-14T04:33:25.643Z,0.90
2022-11-14T04:38:30.655Z,0.98
2022-11-14T04:43:34.254Z,0.80
2022-11-14T04:48:37.773Z,1.13
2022-11-14T04:53:42.590Z,0.90
2022-11-14T05:03:48.928Z,0.88
2022-11-14T05:08:53.590Z,1.00
2022-11-14T05:13:57.065Z,1.38
2022-11-14T05:19:00.676Z,1.23
2022-11-14T05:24:05.790Z,1.30
2022-11-14T05:29:09.728Z,1.20
2022-11-14T05:34:13.049Z,1.27
2022-11-14T05:39:18.243Z,1.50
2022-11-14T05:44:21.546Z,1.00
2022-11-14T05:49:25.465Z,1.30
2022-11-14T05:54:30.345Z,1.20
2022-11-14T06:04:37.179Z,1.15
2022-11-14T06:09:42.082Z,1.40
2022-11-14T06:19:48.725Z,1.00
2022-11-14T06:24:53.546Z,1.10
2022-11-14T06:35:00.180Z,1.00
2022-11-14T06:40:05.483Z,1.20
2022-11-14T06:45:09.917Z,1.40
2022-11-14T06:50:13.603Z,1.45
2022-11-14T06:55:23.922Z,1.80
2022-11-14T07:00:28.582Z,1.50
2022-11-14T07:05:32.059Z,1.20
2022-11-14T07:10:37.106Z,1.60
2022-11-14T07:15:40.561Z,1.70
2022-11-14T07:20:44.145Z,1.70
2022-11-14T07:25:49.453Z,1.50
2022-11-14T07:30:53.024Z,1.70
2022-11-14T07:35:56.459Z,1.88
2022-11-14T07:41:02.540Z,1.55
2022-11-14T07:46:08.156Z,1.67
2022-11-14T07:51:16.972Z,1.63
2022-11-14T07:56:22.638Z,2.65
2022-11-14T08:01:26.178Z,1.80
2022-11-14T08:06:29.589Z,1.75
2022-11-14T08:11:53.885Z,1.50
2022-11-14T08:22:00.874Z,1.70
2022-11-14T08:27:05.852Z,2.00
2022-11-14T08:32:09.146Z,2.20
2022-11-14T08:37:12.660Z,1.42
2022-11-14T08:42:17.461Z,1.80
2022-11-14T08:47:21.339Z,1.50
2022-11-14T08:52:25.569Z,1.67
2022-11-14T08:57:31.245Z,1.80
2022-11-14T09:02:35.320Z,2.33
2022-11-14T09:07:39.327Z,1.57
2022-11-14T09:12:44.027Z,1.20
2022-11-14T09:17:49.117Z,1.75
2022-11-14T09:22:53.594Z,1.42
2022-11-14T09:27:59.154Z,2.65
2022-11-14T09:33:08.420Z,1.40
2022-11-14T09:38:14.822Z,1.67
2022-11-14T09:43:35.895Z,1.55
2022-11-14T09:48:39.608Z,2.00
2022-11-14T09:53:49.599Z,2.08
2022-11-14T09:58:56.063Z,1.60
2022-11-14T10:04:09.453Z,2.00
2022-11-14T10:09:45.413Z,1.65
2022-11-14T10:15:11.909Z,1.80
2022-11-14T10:20:21.941Z,1.35
2022-11-14T10:25:27.917Z,1.67
2022-11-14T10:30:40.596Z,1.40
2022-11-14T10:35:47.171Z,1.60
2022-11-14T10:40:54.143Z,1.58
2022-11-14T10:46:05.201Z,1.30
2022-11-14T10:51:13.950Z,1.40
2022-11-14T10:56:17.566Z,1.25
2022-11-14T11:01:40.146Z,1.52
2022-11-14T11:06:43.637Z,1.80
2022-11-14T11:11:57.666Z,1.10
2022-11-14T11:17:33.287Z,1.30
2022-11-14T11:22:40.340Z,1.45
2022-11-14T11:27:44.116Z,1.33
2022-11-14T11:32:48.760Z,0.98
2022-11-14T11:37:57.578Z,1.40
2022-11-14T11:43:37.437Z,2.53
2022-11-14T11:48:38.646Z,1.40
2022-11-14T11:53:46.381Z,1.33
2022-11-14T11:58:51.811Z,1.45
2022-11-14T12:03:56.714Z,1.95
2022-11-14T12:14:43.365Z,1.33
2022-11-14T12:20:05.874Z,1.52
2022-11-14T12:25:38.914Z,2.00
2022-11-14T12:30:48.382Z,1.35
2022-11-14T12:35:56.414Z,1.35
2022-11-14T12:41:01.863Z,1.80
2022-11-14T12:46:06.553Z,1.30
2022-11-14T12:51:42.833Z,1.55
2022-11-14T12:57:00.285Z,1.95
2022-11-14T13:02:46.264Z,2.08
2022-11-14T13:08:04.774Z,1.52
2022-11-14T13:13:29.638Z,2.95
2022-11-14T13:18:51.014Z,2.42
2022-11-14T13:23:58.608Z,2.00
2022-11-14T13:29:03.341Z,2.00
2022-11-14T13:34:33.762Z,1.77
2022-11-14T13:39:46.966Z,2.35
2022-11-14T13:45:13.440Z,2.05
2022-11-14T13:50:19.014Z,2.25
2022-11-14T13:55:25.029Z,1.75
2022-11-14T14:00:51.492Z,2.33
2022-11-14T14:06:19.173Z,1.80
2022-11-14T14:11:42.739Z,2.00
2022-11-14T14:16:55.462Z,1.67
2022-11-14T14:22:07.374Z,2.00
2022-11-14T14:27:20.837Z,2.03
2022-11-14T14:32:26.458Z,1.65
2022-11-14T14:37:30.995Z,2.03
2022-11-14T14:42:39.288Z,1.95
2022-11-14T14:47:45.569Z,2.10
2022-11-14T14:52:57.623Z,2.17
2022-11-14T14:58:19.519Z,2.05
2022-11-14T15:03:35.583Z,2.87
2022-11-14T15:08:40.527Z,1.80
2022-11-14T15:13:44.789Z,2.70
2022-11-14T15:18:50.989Z,2.78
2022-11-14T15:24:03.172Z,2.88
2022-11-14T15:29:08.306Z,2.90
2022-11-14T15:34:26.690Z,2.80
2022-11-14T15:39:30.351Z,3.13
2022-11-14T15:44:35.789Z,3.17
2022-11-14T15:49:40.933Z,2.60
2022-11-14T15:54:44.506Z,3.10
2022-11-14T15:59:48.108Z,3.13
2022-11-14T16:04:54.780Z,2.88
2022-11-14T16:09:58.173Z,3.33
2022-11-14T16:15:01.494Z,2.58
2022-11-14T16:20:16.422Z,2.78
2022-11-14T16:25:22.242Z,2.67
2022-11-14T16:30:27.528Z,2.63
2022-11-14T16:35:32.375Z,2.63
2022-11-14T16:45:41.616Z,2.90
2022-11-14T16:50:46.615Z,3.25
2022-11-14T17:00:53.135Z,3.10
2022-11-14T17:05:58.001Z,2.85
2022-11-14T17:16:05.906Z,2.42
2022-11-14T17:21:13.509Z,2.75
2022-11-14T17:26:17.716Z,2.10
2022-11-14T17:31:21.794Z,2.10
2022-11-14T17:36:28.549Z,1.60
2022-11-14T17:41:31.912Z,1.55
2022-11-14T17:46:36.134Z,1.70
2022-11-14T17:51:40.939Z,1.20
2022-11-14T17:56:49.633Z,1.52
2022-11-14T18:01:56.257Z,1.50
2022-11-14T18:07:01.288Z,0.90
2022-11-14T18:12:04.620Z,1.10
2022-11-14T18:17:13.137Z,1.52
2022-11-14T18:22:18.235Z,0.93
2022-11-14T18:27:22.393Z,1.00
2022-11-14T18:32:25.950Z,1.30
2022-11-14T18:37:32.864Z,1.00
2022-11-14T18:42:36.135Z,0.88
2022-11-14T18:47:39.774Z,1.08
2022-11-14T18:52:44.524Z,1.08
2022-11-14T18:57:48.119Z,0.95
2022-11-14T19:02:51.965Z,1.60
2022-11-14T19:07:56.693Z,0.95
